Startpagina
METAR-TAF:

METAR-TAF

Vliegvelden :

Luchthaven Herat

Herat, Afghanistan

breedte: 34-13N, lengte: 062-13E, hoogte: 964 m

Actueel weer

Dit bericht is 46 minuten geleden gemaakt, om 10:55 UTC
Wind 25 kt uit het noorden
Temperatuur 39°C
Vochtigheid 9%
Druk 1004 hPa
Zicht 10 km of meer
geen wolken onder 1500 m en geen cumulonimbus

METAR: OAHR 191055Z 01025KT CAVOK 39/00 Q1004 RMK A2966 BLU

Tijdstip: 16:11 (11:41 UTC)

Verwachting

Dit bericht is 41 minuten geleden gemaakt, om 11:00 UTC
Verwachting geldig van 19 om 12 UTC tot 20 om 12 UTC
Wind 25 kt uit het noordnoordoosten
Zicht 10 km of meer
geen wolken onder 1500 m en geen cumulonimbus
Tijdelijke
van 19 om 12 UTC tot 19 om 15 UTC
Wind 20 kt uit het noordnoordoosten met uitschieters tot 35 kt
Wijzigt naar
van 19 om 17 UTC tot 19 om 19 UTC
Wind 10 kt uit het noordnoordoosten
Wijzigt naar
van 20 om 06 UTC tot 20 om 08 UTC
Wind 25 kt uit het noorden

TAF: OAHR 191100Z 1912/2012 02025KT CAVOK TEMPO 1912/1915 02020G35KT BECMG 1917/1919 02010KT BECMG 2006/2008 01025KT

Waarnemingen en weersverwachtingen van meer dan 4000 vliegvelden (METAR en TAF).

De beschikbare stations zijn de gele en rode punten op de kaart.

Ga met uw muis naar het station om de naam te zien.

Klik dan om waarnemingen en weersverwachtingen te zien.

kaart wijzigen: klik op de groene knoppen met een zwart kruis om in te zoomen, op de groene knop met een streepje om uit te zoomen of op de groene pijlen voor aangrenzende kaarten.


METAR-TAF: